sensor_id;sensor_type;location;lat;lon;timestamp;pressure;altitude;pressure_sealevel;temperature;humidity
20017;BME280;10169;42.664;23.610;2023-04-25T00:00:12;94619.78;;;10.75;100.00
20017;BME280;10169;42.664;23.610;2023-04-25T00:02:13;94625.34;;;10.69;100.00
20017;BME280;10169;42.664;23.610;2023-04-25T00:04:13;94627.38;;;10.57;100.00
20017;BME280;10169;42.664;23.610;2023-04-25T00:06:13;94621.47;;;10.50;100.00
20017;BME280;10169;42.664;23.610;2023-04-25T00:08:14;94624.63;;;10.42;100.00
20017;BME280;10169;42.664;23.610;2023-04-25T00:10:15;94617.09;;;10.34;100.00
20017;BME280;10169;42.664;23.610;2023-04-25T00:12:15;94611.72;;;10.24;100.00
20017;BME280;10169;42.664;23.610;2023-04-25T00:14:16;94614.94;;;10.26;100.00
20017;BME280;10169;42.664;23.610;2023-04-25T00:16:17;94621.09;;;10.31;100.00
20017;BME280;10169;42.664;23.610;2023-04-25T00:18:18;94622.41;;;10.34;100.00
20017;BME280;10169;42.664;23.610;2023-04-25T00:20:19;94620.66;;;10.44;100.00
20017;BME280;10169;42.664;23.610;2023-04-25T00:22:20;94619.81;;;10.39;100.00
20017;BME280;10169;42.664;23.610;2023-04-25T00:24:20;94611.38;;;10.52;100.00
20017;BME280;10169;42.664;23.610;2023-04-25T00:26:21;94618.22;;;10.43;100.00
20017;BME280;10169;42.664;23.610;2023-04-25T00:28:21;94617.22;;;10.49;100.00
20017;BME280;10169;42.664;23.610;2023-04-25T00:30:21;94608.16;;;10.45;100.00
20017;BME280;10169;42.664;23.610;2023-04-25T00:32:22;94605.84;;;10.53;100.00
20017;BME280;10169;42.664;23.610;2023-04-25T00:34:22;94608.03;;;10.66;100.00
20017;BME280;10169;42.664;23.610;2023-04-25T00:36:22;94599.28;;;10.66;100.00
20017;BME280;10169;42.664;23.610;2023-04-25T00:38:23;94580.34;;;10.57;100.00
20017;BME280;10169;42.664;23.610;2023-04-25T00:40:23;94583.78;;;10.53;100.00
20017;BME280;10169;42.664;23.610;2023-04-25T00:42:24;94582.72;;;10.54;100.00
20017;BME280;10169;42.664;23.610;2023-04-25T00:44:25;94581.09;;;10.48;100.00
20017;BME280;10169;42.664;23.610;2023-04-25T00:46:26;94576.03;;;10.46;100.00
20017;BME280;10169;42.664;23.610;2023-04-25T00:48:27;94577.94;;;10.51;100.00
20017;BME280;10169;42.664;23.610;2023-04-25T00:50:27;94571.03;;;10.55;100.00
20017;BME280;10169;42.664;23.610;2023-04-25T00:52:27;94569.41;;;10.49;100.00
20017;BME280;10169;42.664;23.610;2023-04-25T00:54:28;94555.38;;;10.53;100.00
20017;BME280;10169;42.664;23.610;2023-04-25T00:56:28;94550.28;;;10.52;100.00
20017;BME280;10169;42.664;23.610;2023-04-25T00:58:29;94538.03;;;10.46;100.00
20017;BME280;10169;42.664;23.610;2023-04-25T01:00:29;94539.03;;;10.35;100.00
20017;BME280;10169;42.664;23.610;2023-04-25T01:02:30;94544.38;;;10.40;100.00
20017;BME280;10169;42.664;23.610;2023-04-25T01:04:31;94533.00;;;10.44;100.00
20017;BME280;10169;42.664;23.610;2023-04-25T01:06:32;94541.75;;;10.40;100.00
20017;BME280;10169;42.664;23.610;2023-04-25T01:08:32;94536.88;;;10.27;100.00
20017;BME280;10169;42.664;23.610;2023-04-25T01:10:33;94532.56;;;10.20;100.00
20017;BME280;10169;42.664;23.610;2023-04-25T01:12:34;94536.28;;;10.19;100.00
20017;BME280;10169;42.664;23.610;2023-04-25T01:14:35;94541.25;;;10.11;100.00
20017;BME280;10169;42.664;23.610;2023-04-25T01:16:35;94538.19;;;10.24;100.00
20017;BME280;10169;42.664;23.610;2023-04-25T01:18:37;94528.66;;;10.28;100.00
20017;BME280;10169;42.664;23.610;2023-04-25T01:20:38;94527.03;;;10.27;100.00
20017;BME280;10169;42.664;23.610;2023-04-25T01:22:40;94530.13;;;10.14;100.00
20017;BME280;10169;42.664;23.610;2023-04-25T01:24:41;94518.97;;;10.12;100.00
20017;BME280;10169;42.664;23.610;2023-04-25T01:26:41;94520.19;;;10.04;100.00
20017;BME280;10169;42.664;23.610;2023-04-25T01:28:44;94522.31;;;9.97;100.00
20017;BME280;10169;42.664;23.610;2023-04-25T01:30:45;94505.78;;;9.90;100.00
20017;BME280;10169;42.664;23.610;2023-04-25T01:32:46;94520.16;;;9.94;100.00
20017;BME280;10169;42.664;23.610;2023-04-25T01:34:47;94520.72;;;10.01;100.00
20017;BME280;10169;42.664;23.610;2023-04-25T01:36:49;94518.13;;;10.06;100.00
20017;BME280;10169;42.664;23.610;2023-04-25T01:38:50;94521.31;;;10.08;100.00
20017;BME280;10169;42.664;23.610;2023-04-25T01:40:50;94510.94;;;10.07;100.00
20017;BME280;10169;42.664;23.610;2023-04-25T01:42:51;94513.91;;;10.10;100.00
20017;BME280;10169;42.664;23.610;2023-04-25T01:44:51;94504.03;;;10.06;100.00
20017;BME280;10169;42.664;23.610;2023-04-25T01:46:51;94502.97;;;10.02;100.00
20017;BME280;10169;42.664;23.610;2023-04-25T01:48:52;94500.59;;;10.05;100.00
20017;BME280;10169;42.664;23.610;2023-04-25T01:50:52;94492.56;;;10.00;100.00
20017;BME280;10169;42.664;23.610;2023-04-25T01:52:52;94488.34;;;9.99;100.00
20017;BME280;10169;42.664;23.610;2023-04-25T01:54:53;94500.47;;;9.90;100.00
20017;BME280;10169;42.664;23.610;2023-04-25T01:56:54;94501.56;;;9.94;100.00
20017;BME280;10169;42.664;23.610;2023-04-25T01:58:57;94501.84;;;9.98;100.00
20017;BME280;10169;42.664;23.610;2023-04-25T02:00:57;94501.03;;;9.92;100.00
20017;BME280;10169;42.664;23.610;2023-04-25T02:02:58;94494.63;;;9.88;100.00
20017;BME280;10169;42.664;23.610;2023-04-25T02:04:58;94489.31;;;9.88;100.00
20017;BME280;10169;42.664;23.610;2023-04-25T02:06:58;94490.88;;;9.84;100.00
20017;BME280;10169;42.664;23.610;2023-04-25T02:08:59;94487.72;;;9.87;100.00
20017;BME280;10169;42.664;23.610;2023-04-25T02:10:59;94486.88;;;9.82;100.00
20017;BME280;10169;42.664;23.610;2023-04-25T02:13:00;94484.19;;;9.77;100.00
20017;BME280;10169;42.664;23.610;2023-04-25T02:15:00;94483.13;;;9.78;100.00
20017;BME280;10169;42.664;23.610;2023-04-25T02:17:00;94486.03;;;9.76;100.00
20017;BME280;10169;42.664;23.610;2023-04-25T02:19:01;94485.50;;;9.74;100.00
20017;BME280;10169;42.664;23.610;2023-04-25T02:21:01;94489.94;;;9.64;100.00
20017;BME280;10169;42.664;23.610;2023-04-25T02:23:03;94489.88;;;9.59;100.00
20017;BME280;10169;42.664;23.610;2023-04-25T02:25:03;94491.50;;;9.65;100.00
20017;BME280;10169;42.664;23.610;2023-04-25T02:27:04;94485.03;;;9.50;100.00
20017;BME280;10169;42.664;23.610;2023-04-25T02:29:05;94489.50;;;9.45;100.00
20017;BME280;10169;42.664;23.610;2023-04-25T02:31:05;94477.53;;;9.42;100.00
20017;BME280;10169;42.664;23.610;2023-04-25T02:33:06;94471.56;;;9.57;100.00
20017;BME280;10169;42.664;23.610;2023-04-25T02:35:06;94469.69;;;9.53;100.00
20017;BME280;10169;42.664;23.610;2023-04-25T02:37:06;94466.72;;;9.49;100.00
20017;BME280;10169;42.664;23.610;2023-04-25T02:39:07;94469.28;;;9.39;100.00
20017;BME280;10169;42.664;23.610;2023-04-25T02:41:07;94457.84;;;9.33;100.00
20017;BME280;10169;42.664;23.610;2023-04-25T02:43:07;94457.78;;;9.28;100.00
20017;BME280;10169;42.664;23.610;2023-04-25T02:45:08;94454.03;;;9.24;100.00
20017;BME280;10169;42.664;23.610;2023-04-25T02:47:08;94454.91;;;9.35;100.00
20017;BME280;10169;42.664;23.610;2023-04-25T02:49:09;94435.38;;;9.41;100.00
20017;BME280;10169;42.664;23.610;2023-04-25T02:51:09;94438.78;;;9.36;100.00
20017;BME280;10169;42.664;23.610;2023-04-25T02:53:09;94440.28;;;9.27;100.00
20017;BME280;10169;42.664;23.610;2023-04-25T02:55:10;94440.50;;;9.21;100.00
20017;BME280;10169;42.664;23.610;2023-04-25T02:57:10;94439.94;;;9.19;100.00
20017;BME280;10169;42.664;23.610;2023-04-25T02:59:11;94444.44;;;9.18;100.00
20017;BME280;10169;42.664;23.610;2023-04-25T03:01:11;94443.34;;;9.14;100.00
20017;BME280;10169;42.664;23.610;2023-04-25T03:03:11;94444.34;;;9.08;100.00
20017;BME280;10169;42.664;23.610;2023-04-25T03:05:12;94444.09;;;9.10;100.00
20017;BME280;10169;42.664;23.610;2023-04-25T03:07:12;94449.34;;;9.05;100.00
20017;BME280;10169;42.664;23.610;2023-04-25T03:09:12;94451.84;;;8.90;100.00
20017;BME280;10169;42.664;23.610;2023-04-25T03:11:13;94458.19;;;8.89;100.00
20017;BME280;10169;42.664;23.610;2023-04-25T03:13:13;94460.59;;;8.90;100.00
20017;BME280;10169;42.664;23.610;2023-04-25T03:15:13;94466.13;;;8.89;100.00
20017;BME280;10169;42.664;23.610;2023-04-25T03:17:14;94459.94;;;8.78;100.00
20017;BME280;10169;42.664;23.610;2023-04-25T03:19:14;94459.88;;;8.73;100.00
20017;BME280;10169;42.664;23.610;2023-04-25T03:21:16;94454.72;;;8.88;100.00
20017;BME280;10169;42.664;23.610;2023-04-25T03:23:17;94453.56;;;8.79;100.00
20017;BME280;10169;42.664;23.610;2023-04-25T03:25:17;94458.03;;;8.73;100.00
20017;BME280;10169;42.664;23.610;2023-04-25T03:27:17;94446.66;;;8.51;100.00
20017;BME280;10169;42.664;23.610;2023-04-25T03:29:18;94447.06;;;8.43;100.00
20017;BME280;10169;42.664;23.610;2023-04-25T03:31:18;94441.59;;;8.50;100.00
20017;BME280;10169;42.664;23.610;2023-04-25T03:33:18;94450.69;;;8.59;100.00
20017;BME280;10169;42.664;23.610;2023-04-25T03:35:19;94460.25;;;8.60;100.00
20017;BME280;10169;42.664;23.610;2023-04-25T03:37:19;94465.19;;;8.51;100.00
20017;BME280;10169;42.664;23.610;2023-04-25T03:39:19;94460.75;;;8.35;100.00
20017;BME280;10169;42.664;23.610;2023-04-25T03:41:20;94457.00;;;8.31;100.00
20017;BME280;10169;42.664;23.610;2023-04-25T03:43:20;94453.69;;;8.24;100.00
20017;BME280;10169;42.664;23.610;2023-04-25T03:45:20;94462.28;;;8.31;100.00
20017;BME280;10169;42.664;23.610;2023-04-25T03:47:20;94463.31;;;8.30;100.00
20017;BME280;10169;42.664;23.610;2023-04-25T03:49:21;94462.41;;;8.41;100.00
20017;BME280;10169;42.664;23.610;2023-04-25T03:51:21;94456.19;;;8.31;100.00
20017;BME280;10169;42.664;23.610;2023-04-25T03:53:21;94458.38;;;8.34;100.00
20017;BME280;10169;42.664;23.610;2023-04-25T03:55:22;94457.13;;;8.41;100.00
20017;BME280;10169;42.664;23.610;2023-04-25T03:57:22;94452.56;;;8.37;100.00
20017;BME280;10169;42.664;23.610;2023-04-25T03:59:22;94452.88;;;8.40;100.00
20017;BME280;10169;42.664;23.610;2023-04-25T04:01:23;94448.31;;;8.36;100.00
20017;BME280;10169;42.664;23.610;2023-04-25T04:03:23;94458.47;;;8.44;100.00
20017;BME280;10169;42.664;23.610;2023-04-25T04:05:23;94455.16;;;8.53;100.00
20017;BME280;10169;42.664;23.610;2023-04-25T04:07:24;94449.63;;;8.33;100.00
20017;BME280;10169;42.664;23.610;2023-04-25T04:09:24;94459.66;;;8.53;100.00
20017;BME280;10169;42.664;23.610;2023-04-25T04:11:25;94453.53;;;8.52;100.00
20017;BME280;10169;42.664;23.610;2023-04-25T04:13:26;94462.81;;;8.76;100.00
20017;BME280;10169;42.664;23.610;2023-04-25T04:15:27;94468.72;;;8.84;100.00
20017;BME280;10169;42.664;23.610;2023-04-25T04:17:27;94461.19;;;8.97;100.00
20017;BME280;10169;42.664;23.610;2023-04-25T04:19:27;94471.59;;;9.04;100.00
20017;BME280;10169;42.664;23.610;2023-04-25T04:21:28;94466.72;;;9.49;100.00
20017;BME280;10169;42.664;23.610;2023-04-25T04:23:28;94454.31;;;9.60;100.00
20017;BME280;10169;42.664;23.610;2023-04-25T04:25:28;94453.63;;;9.37;100.00
20017;BME280;10169;42.664;23.610;2023-04-25T04:27:30;94456.66;;;9.51;100.00
20017;BME280;10169;42.664;23.610;2023-04-25T04:29:30;94458.53;;;9.87;100.00
20017;BME280;10169;42.664;23.610;2023-04-25T04:31:31;94455.03;;;10.18;100.00
20017;BME280;10169;42.664;23.610;2023-04-25T04:33:32;94465.50;;;10.35;100.00
20017;BME280;10169;42.664;23.610;2023-04-25T04:35:33;94458.88;;;10.38;100.00
20017;BME280;10169;42.664;23.610;2023-04-25T04:37:33;94455.69;;;10.46;100.00
20017;BME280;10169;42.664;23.610;2023-04-25T04:39:33;94456.84;;;10.60;100.00
20017;BME280;10169;42.664;23.610;2023-04-25T04:41:34;94452.88;;;10.72;100.00
20017;BME280;10169;42.664;23.610;2023-04-25T04:43:34;94458.50;;;10.76;100.00
20017;BME280;10169;42.664;23.610;2023-04-25T04:45:34;94458.31;;;11.03;100.00
20017;BME280;10169;42.664;23.610;2023-04-25T04:47:34;94458.00;;;10.99;100.00
20017;BME280;10169;42.664;23.610;2023-04-25T04:49:36;94453.22;;;10.91;100.00
20017;BME280;10169;42.664;23.610;2023-04-25T04:51:37;94467.34;;;11.07;100.00
20017;BME280;10169;42.664;23.610;2023-04-25T04:53:37;94459.69;;;11.40;100.00
20017;BME280;10169;42.664;23.610;2023-04-25T04:55:37;94456.25;;;11.45;100.00
20017;BME280;10169;42.664;23.610;2023-04-25T04:57:41;94454.91;;;11.62;100.00
20017;BME280;10169;42.664;23.610;2023-04-25T04:59:41;94449.59;;;11.42;100.00
20017;BME280;10169;42.664;23.610;2023-04-25T05:01:41;94453.31;;;11.41;100.00
20017;BME280;10169;42.664;23.610;2023-04-25T05:03:42;94452.75;;;11.34;100.00
20017;BME280;10169;42.664;23.610;2023-04-25T05:05:42;94450.88;;;11.30;100.00
20017;BME280;10169;42.664;23.610;2023-04-25T05:07:42;94444.78;;;11.29;100.00
20017;BME280;10169;42.664;23.610;2023-04-25T05:09:43;94441.31;;;11.14;100.00
20017;BME280;10169;42.664;23.610;2023-04-25T05:11:43;94441.03;;;11.10;100.00
20017;BME280;10169;42.664;23.610;2023-04-25T05:13:43;94443.97;;;11.19;100.00
20017;BME280;10169;42.664;23.610;2023-04-25T05:15:43;94452.50;;;11.21;100.00
20017;BME280;10169;42.664;23.610;2023-04-25T05:17:44;94454.59;;;11.24;100.00
20017;BME280;10169;42.664;23.610;2023-04-25T05:19:44;94462.88;;;11.27;100.00
20017;BME280;10169;42.664;23.610;2023-04-25T05:21:45;94461.00;;;11.28;100.00
20017;BME280;10169;42.664;23.610;2023-04-25T05:23:45;94450.91;;;11.25;100.00
20017;BME280;10169;42.664;23.610;2023-04-25T05:25:45;94459.41;;;11.22;100.00
20017;BME280;10169;42.664;23.610;2023-04-25T05:27:46;94442.63;;;11.11;100.00
20017;BME280;10169;42.664;23.610;2023-04-25T05:29:46;94454.88;;;11.17;100.00
20017;BME280;10169;42.664;23.610;2023-04-25T05:31:46;94458.06;;;11.24;100.00
20017;BME280;10169;42.664;23.610;2023-04-25T05:33:48;94449.56;;;11.22;100.00
20017;BME280;10169;42.664;23.610;2023-04-25T05:35:49;94451.16;;;11.23;100.00
20017;BME280;10169;42.664;23.610;2023-04-25T05:37:50;94445.56;;;11.35;100.00
20017;BME280;10169;42.664;23.610;2023-04-25T05:39:50;94454.38;;;11.35;100.00
20017;BME280;10169;42.664;23.610;2023-04-25T05:41:50;94454.38;;;11.35;100.00
20017;BME280;10169;42.664;23.610;2023-04-25T05:43:51;94454.09;;;11.37;100.00
20017;BME280;10169;42.664;23.610;2023-04-25T05:45:51;94451.72;;;11.45;100.00
20017;BME280;10169;42.664;23.610;2023-04-25T05:47:51;94455.44;;;11.54;100.00
20017;BME280;10169;42.664;23.610;2023-04-25T05:49:52;94456.50;;;11.53;100.00
20017;BME280;10169;42.664;23.610;2023-04-25T05:51:52;94454.13;;;11.52;100.00
20017;BME280;10169;42.664;23.610;2023-04-25T05:53:53;94471.16;;;11.56;100.00
20017;BME280;10169;42.664;23.610;2023-04-25T05:55:53;94470.38;;;11.65;100.00
20017;BME280;10169;42.664;23.610;2023-04-25T05:57:53;94466.38;;;11.63;100.00
20017;BME280;10169;42.664;23.610;2023-04-25T05:59:54;94461.28;;;11.61;100.00
20017;BME280;10169;42.664;23.610;2023-04-25T06:01:54;94466.91;;;11.65;100.00
20017;BME280;10169;42.664;23.610;2023-04-25T06:03:55;94463.47;;;11.70;100.00
20017;BME280;10169;42.664;23.610;2023-04-25T06:05:55;94448.03;;;11.72;100.00
20017;BME280;10169;42.664;23.610;2023-04-25T06:07:55;94457.84;;;11.86;100.00
20017;BME280;10169;42.664;23.610;2023-04-25T06:09:56;94462.38;;;11.91;100.00
20017;BME280;10169;42.664;23.610;2023-04-25T06:11:56;94464.50;;;12.09;100.00
20017;BME280;10169;42.664;23.610;2023-04-25T06:13:56;94460.75;;;12.25;100.00
20017;BME280;10169;42.664;23.610;2023-04-25T06:15:56;94451.13;;;12.34;100.00
20017;BME280;10169;42.664;23.610;2023-04-25T06:17:58;94462.59;;;12.29;100.00
20017;BME280;10169;42.664;23.610;2023-04-25T06:19:59;94466.56;;;12.42;100.00
20017;BME280;10169;42.664;23.610;2023-04-25T06:21:59;94472.44;;;12.34;100.00
20017;BME280;10169;42.664;23.610;2023-04-25T06:24:00;94470.59;;;12.29;100.00
20017;BME280;10169;42.664;23.610;2023-04-25T06:26:00;94471.41;;;12.25;100.00
20017;BME280;10169;42.664;23.610;2023-04-25T06:28:00;94476.16;;;12.33;100.00
20017;BME280;10169;42.664;23.610;2023-04-25T06:30:00;94460.44;;;12.42;100.00
20017;BME280;10169;42.664;23.610;2023-04-25T06:32:01;94462.78;;;12.53;100.00
20017;BME280;10169;42.664;23.610;2023-04-25T06:34:01;94469.22;;;12.42;100.00
20017;BME280;10169;42.664;23.610;2023-04-25T06:36:02;94470.53;;;12.55;100.00
20017;BME280;10169;42.664;23.610;2023-04-25T06:38:03;94467.28;;;12.63;100.00
20017;BME280;10169;42.664;23.610;2023-04-25T06:40:03;94460.03;;;12.73;100.00
20017;BME280;10169;42.664;23.610;2023-04-25T06:42:04;94458.16;;;12.84;100.00
20017;BME280;10169;42.664;23.610;2023-04-25T06:44:04;94458.69;;;12.86;100.00
20017;BME280;10169;42.664;23.610;2023-04-25T06:46:04;94452.22;;;13.02;100.00
20017;BME280;10169;42.664;23.610;2023-04-25T06:48:04;94462.06;;;13.01;100.00
20017;BME280;10169;42.664;23.610;2023-04-25T06:50:05;94456.38;;;13.18;100.00
20017;BME280;10169;42.664;23.610;2023-04-25T06:52:05;94457.47;;;13.22;100.00
20017;BME280;10169;42.664;23.610;2023-04-25T06:54:06;94464.31;;;13.33;100.00
20017;BME280;10169;42.664;23.610;2023-04-25T06:56:06;94458.09;;;13.43;100.00
20017;BME280;10169;42.664;23.610;2023-04-25T06:58:06;94468.06;;;13.32;100.00
20017;BME280;10169;42.664;23.610;2023-04-25T07:00:07;94467.31;;;13.27;100.00
20017;BME280;10169;42.664;23.610;2023-04-25T07:02:11;94466.03;;;13.14;100.00
20017;BME280;10169;42.664;23.610;2023-04-25T07:04:11;94473.91;;;13.34;100.00
20017;BME280;10169;42.664;23.610;2023-04-25T07:06:11;94467.03;;;13.28;100.00
20017;BME280;10169;42.664;23.610;2023-04-25T07:08:12;94470.72;;;13.32;100.00
20017;BME280;10169;42.664;23.610;2023-04-25T07:10:12;94470.72;;;13.32;100.00
20017;BME280;10169;42.664;23.610;2023-04-25T07:12:12;94468.56;;;13.34;100.00
20017;BME280;10169;42.664;23.610;2023-04-25T07:14:13;94460.50;;;13.49;100.00
20017;BME280;10169;42.664;23.610;2023-04-25T07:16:13;94456.25;;;13.38;100.00
20017;BME280;10169;42.664;23.610;2023-04-25T07:18:13;94455.59;;;13.56;100.00
20017;BME280;10169;42.664;23.610;2023-04-25T07:20:14;94454.47;;;13.67;100.00
20017;BME280;10169;42.664;23.610;2023-04-25T07:22:14;94457.50;;;13.90;100.00
20017;BME280;10169;42.664;23.610;2023-04-25T07:24:14;94461.88;;;14.09;100.00
20017;BME280;10169;42.664;23.610;2023-04-25T07:26:15;94456.63;;;14.57;100.00
20017;BME280;10169;42.664;23.610;2023-04-25T07:28:15;94447.88;;;14.93;100.00
20017;BME280;10169;42.664;23.610;2023-04-25T07:30:15;94450.22;;;15.18;100.00
20017;BME280;10169;42.664;23.610;2023-04-25T07:32:16;94449.91;;;15.44;100.00
20017;BME280;10169;42.664;23.610;2023-04-25T07:34:16;94448.53;;;15.97;100.00
20017;BME280;10169;42.664;23.610;2023-04-25T07:36:16;94441.47;;;16.33;100.00
20017;BME280;10169;42.664;23.610;2023-04-25T07:38:17;94441.66;;;16.37;100.00
20017;BME280;10169;42.664;23.610;2023-04-25T07:40:17;94446.50;;;16.21;100.00
20017;BME280;10169;42.664;23.610;2023-04-25T07:42:17;94431.28;;;15.71;100.00
20017;BME280;10169;42.664;23.610;2023-04-25T07:44:17;94443.28;;;15.36;100.00
20017;BME280;10169;42.664;23.610;2023-04-25T07:46:18;94439.09;;;15.30;100.00
20017;BME280;10169;42.664;23.610;2023-04-25T07:48:18;94437.88;;;15.41;100.00
20017;BME280;10169;42.664;23.610;2023-04-25T07:50:18;94433.75;;;15.30;100.00
20017;BME280;10169;42.664;23.610;2023-04-25T07:52:19;94437.78;;;15.27;100.00
20017;BME280;10169;42.664;23.610;2023-04-25T07:54:20;94434.06;;;15.05;100.00
20017;BME280;10169;42.664;23.610;2023-04-25T07:56:21;94440.34;;;15.56;100.00
20017;BME280;10169;42.664;23.610;2023-04-25T07:58:21;94438.84;;;16.15;100.00
20017;BME280;10169;42.664;23.610;2023-04-25T08:00:22;94428.41;;;16.59;100.00
20017;BME280;10169;42.664;23.610;2023-04-25T08:02:22;94427.72;;;16.53;100.00
20017;BME280;10169;42.664;23.610;2023-04-25T08:04:23;94427.41;;;16.55;100.00
20017;BME280;10169;42.664;23.610;2023-04-25T08:06:23;94431.31;;;16.90;100.00
20017;BME280;10169;42.664;23.610;2023-04-25T08:08:23;94434.66;;;17.58;100.00
20017;BME280;10169;42.664;23.610;2023-04-25T08:10:24;94436.22;;;17.95;100.00
20017;BME280;10169;42.664;23.610;2023-04-25T08:12:24;94430.84;;;17.73;100.00
20017;BME280;10169;42.664;23.610;2023-04-25T08:14:25;94422.13;;;16.91;100.00
20017;BME280;10169;42.664;23.610;2023-04-25T08:16:25;94424.50;;;16.38;100.00
20017;BME280;10169;42.664;23.610;2023-04-25T08:18:25;94439.00;;;16.37;100.00
20017;BME280;10169;42.664;23.610;2023-04-25T08:20:26;94431.28;;;17.03;100.00
20017;BME280;10169;42.664;23.610;2023-04-25T08:22:28;94430.50;;;17.52;100.00
20017;BME280;10169;42.664;23.610;2023-04-25T08:24:29;94427.34;;;17.36;100.00
20017;BME280;10169;42.664;23.610;2023-04-25T08:26:29;94429.84;;;17.19;100.00
20017;BME280;10169;42.664;23.610;2023-04-25T08:28:30;94430.75;;;17.64;100.00
20017;BME280;10169;42.664;23.610;2023-04-25T08:30:30;94428.31;;;17.76;100.00
20017;BME280;10169;42.664;23.610;2023-04-25T08:32:31;94418.09;;;18.09;100.00
20017;BME280;10169;42.664;23.610;2023-04-25T08:34:31;94416.66;;;17.81;100.00
20017;BME280;10169;42.664;23.610;2023-04-25T08:36:31;94415.47;;;17.51;100.00
20017;BME280;10169;42.664;23.610;2023-04-25T08:38:32;94421.31;;;17.17;100.00
20017;BME280;10169;42.664;23.610;2023-04-25T08:40:32;94416.97;;;17.57;100.00
20017;BME280;10169;42.664;23.610;2023-04-25T08:42:35;94413.78;;;17.99;100.00
20017;BME280;10169;42.664;23.610;2023-04-25T08:44:37;94409.81;;;17.97;100.00
20017;BME280;10169;42.664;23.610;2023-04-25T08:46:38;94410.78;;;18.32;100.00
20017;BME280;10169;42.664;23.610;2023-04-25T08:48:40;94403.38;;;18.29;100.00
20017;BME280;10169;42.664;23.610;2023-04-25T08:50:49;94395.38;;;18.15;100.00
20017;BME280;10169;42.664;23.610;2023-04-25T08:52:50;94415.78;;;18.77;100.00
20017;BME280;10169;42.664;23.610;2023-04-25T08:54:52;94412.63;;;18.75;93.84
20017;BME280;10169;42.664;23.610;2023-04-25T08:56:54;94413.44;;;18.85;96.44
20017;BME280;10169;42.664;23.610;2023-04-25T08:58:55;94414.63;;;19.09;98.67
20017;BME280;10169;42.664;23.610;2023-04-25T09:00:56;94418.97;;;19.53;95.35
20017;BME280;10169;42.664;23.610;2023-04-25T09:02:57;94412.69;;;19.01;99.39
20017;BME280;10169;42.664;23.610;2023-04-25T09:04:57;94404.81;;;18.35;100.00
20017;BME280;10169;42.664;23.610;2023-04-25T09:06:58;94415.78;;;18.16;100.00
20017;BME280;10169;42.664;23.610;2023-04-25T09:09:02;94399.31;;;17.87;100.00
20017;BME280;10169;42.664;23.610;2023-04-25T09:11:03;94407.25;;;17.92;100.00
20017;BME280;10169;42.664;23.610;2023-04-25T09:13:07;94401.81;;;17.83;100.00
20017;BME280;10169;42.664;23.610;2023-04-25T09:15:12;94407.25;;;17.70;100.00
20017;BME280;10169;42.664;23.610;2023-04-25T09:17:13;94422.44;;;17.52;100.00
20017;BME280;10169;42.664;23.610;2023-04-25T09:19:23;94431.59;;;15.83;100.00
20017;BME280;10169;42.664;23.610;2023-04-25T09:21:23;94439.22;;;14.59;100.00
20017;BME280;10169;42.664;23.610;2023-04-25T09:23:24;94439.38;;;13.87;100.00
20017;BME280;10169;42.664;23.610;2023-04-25T09:25:24;94454.31;;;13.10;100.00
20017;BME280;10169;42.664;23.610;2023-04-25T09:27:25;94434.19;;;12.69;100.00
20017;BME280;10169;42.664;23.610;2023-04-25T09:29:33;94423.81;;;12.67;100.00
20017;BME280;10169;42.664;23.610;2023-04-25T09:31:34;94422.03;;;13.12;100.00
20017;BME280;10169;42.664;23.610;2023-04-25T09:33:34;94426.16;;;13.71;100.00
20017;BME280;10169;42.664;23.610;2023-04-25T09:35:41;94417.59;;;14.27;100.00
20017;BME280;10169;42.664;23.610;2023-04-25T09:37:42;94415.00;;;14.69;100.00
20017;BME280;10169;42.664;23.610;2023-04-25T09:39:44;94414.47;;;15.09;100.00
20017;BME280;10169;42.664;23.610;2023-04-25T09:41:44;94409.81;;;15.57;100.00
20017;BME280;10169;42.664;23.610;2023-04-25T09:43:45;94402.63;;;15.85;100.00
20017;BME280;10169;42.664;23.610;2023-04-25T09:45:47;94395.34;;;15.72;100.00
20017;BME280;10169;42.664;23.610;2023-04-25T09:47:47;94393.66;;;15.62;100.00
20017;BME280;10169;42.664;23.610;2023-04-25T09:49:47;94389.44;;;15.75;100.00
20017;BME280;10169;42.664;23.610;2023-04-25T09:51:55;94390.81;;;15.72;100.00
20017;BME280;10169;42.664;23.610;2023-04-25T09:53:56;94388.31;;;15.62;100.00
20017;BME280;10169;42.664;23.610;2023-04-25T09:55:56;94385.16;;;15.74;100.00
20017;BME280;10169;42.664;23.610;2023-04-25T09:57:57;94384.25;;;16.11;100.00
20017;BME280;10169;42.664;23.610;2023-04-25T10:00:02;94386.34;;;16.41;100.00
20017;BME280;10169;42.664;23.610;2023-04-25T10:02:05;94382.28;;;16.84;100.00
20017;BME280;10169;42.664;23.610;2023-04-25T10:04:06;94378.34;;;17.17;100.00
20017;BME280;10169;42.664;23.610;2023-04-25T10:06:11;94373.06;;;17.26;100.00
20017;BME280;10169;42.664;23.610;2023-04-25T10:08:12;94382.50;;;17.01;100.00
20017;BME280;10169;42.664;23.610;2023-04-25T10:10:13;94378.72;;;17.24;100.00
20017;BME280;10169;42.664;23.610;2023-04-25T10:12:13;94375.97;;;17.52;100.00
20017;BME280;10169;42.664;23.610;2023-04-25T10:14:14;94384.25;;;17.77;100.00
20017;BME280;10169;42.664;23.610;2023-04-25T10:16:16;94389.31;;;17.79;94.03
20017;BME280;10169;42.664;23.610;2023-04-25T10:18:16;94385.69;;;17.61;97.71
20017;BME280;10169;42.664;23.610;2023-04-25T10:20:18;94370.16;;;17.36;98.54
20017;BME280;10169;42.664;23.610;2023-04-25T10:24:25;94373.75;;;16.82;100.00
20017;BME280;10169;42.664;23.610;2023-04-25T10:26:26;94370.59;;;16.80;100.00